Time;durP1;ratioP1;P1;durP2;ratioP2;P2;SDS_P1;SDS_P2;PMS_P1;PMS_P2;Temp;Humidity;BMP_temperature;BMP_pressure;BME280_temperature;BME280_humidity;BME280_pressure;Samples;Min_cycle;Max_cycle;Signal;HPM_P1;HPM_P2
2023/01/30 00:01:23;;;;;;;33.00;15.88;;;3.00;99.90;;;;;;5065581;28;20024;-40
2023/01/30 00:03:49;;;;;;;31.33;16.73;;;3.00;99.90;;;;;;5048596;28;20021;-40
2023/01/30 00:06:16;;;;;;;30.05;15.30;;;3.00;99.90;;;;;;5048148;28;20017;-40
2023/01/30 00:08:42;;;;;;;28.20;15.65;;;3.00;99.90;;;;;;5049139;28;20025;-39
2023/01/30 00:11:10;;;;;;;30.90;16.38;;;3.00;99.90;;;;;;5048089;28;20052;-38
2023/01/30 00:13:37;;;;;;;29.58;15.82;;;3.00;99.90;;;;;;5047154;28;20043;-39
2023/01/30 00:16:02;;;;;;;28.80;15.57;;;3.00;99.90;;;;;;5054972;28;20051;-38
2023/01/30 00:18:28;;;;;;;32.85;17.08;;;3.00;99.90;;;;;;5058607;28;20016;-39
2023/01/30 00:20:55;;;;;;;34.22;17.60;;;3.00;99.90;;;;;;5042390;28;20136;-39
2023/01/30 00:23:21;;;;;;;32.90;16.63;;;3.00;99.90;;;;;;5043644;28;20036;-39
2023/01/30 00:25:46;;;;;;;28.60;15.60;;;3.10;99.90;;;;;;5040627;28;20033;-39
2023/01/30 00:28:12;;;;;;;31.45;15.95;;;3.10;99.90;;;;;;5047221;28;20090;-40
2023/01/30 00:30:37;;;;;;;34.15;17.45;;;3.10;99.90;;;;;;5048797;28;20025;-40
2023/01/30 00:33:03;;;;;;;36.58;19.10;;;3.10;99.90;;;;;;5050170;28;20047;-39
2023/01/30 00:35:28;;;;;;;32.25;16.67;;;3.10;99.90;;;;;;5047851;28;20035;-39
2023/01/30 00:37:56;;;;;;;28.48;15.15;;;3.10;99.90;;;;;;5048967;28;20111;-39
2023/01/30 00:40:23;;;;;;;30.65;15.60;;;3.10;99.90;;;;;;5048098;28;20104;-39
2023/01/30 00:48:17;;;;;;;35.10;16.00;;;3.20;99.90;;;;;;5060199;28;20191;-39
2023/01/30 00:50:43;;;;;;;26.58;15.45;;;3.20;99.90;;;;;;5068095;28;20111;-39
2023/01/30 00:53:10;;;;;;;27.77;15.77;;;3.20;99.90;;;;;;5068140;28;20550;-38
2023/01/30 00:55:35;;;;;;;35.13;16.92;;;3.30;99.90;;;;;;5067607;28;20016;-39
2023/01/30 00:58:01;;;;;;;32.50;16.80;;;3.40;99.90;;;;;;5068098;28;20166;-38
2023/01/30 01:00:26;;;;;;;30.50;16.50;;;3.40;99.90;;;;;;5068169;28;20021;-39
2023/01/30 01:02:52;;;;;;;33.58;15.90;;;3.40;99.90;;;;;;5053471;28;20025;-39
2023/01/30 01:05:17;;;;;;;31.80;18.52;;;3.50;99.90;;;;;;5050135;28;20021;-38
2023/01/30 01:07:43;;;;;;;32.42;17.20;;;3.40;99.90;;;;;;5051947;28;20532;-40
2023/01/30 01:10:15;;;;;;;35.05;17.38;;;3.40;99.90;;;;;;5051566;28;20060;-39
2023/01/30 01:12:44;;;;;;;30.40;17.98;;;3.40;99.90;;;;;;5052389;28;20028;-39
2023/01/30 01:15:13;;;;;;;34.70;16.42;;;3.50;99.90;;;;;;5051554;28;20025;-39
2023/01/30 01:17:40;;;;;;;39.28;17.80;;;3.50;99.90;;;;;;5052245;28;20373;-39
2023/01/30 01:20:07;;;;;;;28.15;16.60;;;3.50;99.90;;;;;;5052301;28;20029;-39
2023/01/30 01:22:32;;;;;;;31.48;16.25;;;3.50;99.90;;;;;;5052120;28;20451;-39
2023/01/30 01:24:58;;;;;;;33.30;17.42;;;3.50;99.90;;;;;;5051584;28;20413;-39
2023/01/30 01:27:24;;;;;;;36.85;18.17;;;3.40;99.90;;;;;;5052110;28;20040;-39
2023/01/30 01:29:49;;;;;;;40.10;17.85;;;3.50;99.90;;;;;;5052293;28;20032;-38
2023/01/30 01:32:15;;;;;;;32.90;17.90;;;3.50;99.90;;;;;;5053332;28;20029;-38
2023/01/30 01:34:40;;;;;;;33.75;17.70;;;3.40;99.90;;;;;;5051317;28;20036;-38
2023/01/30 01:37:06;;;;;;;33.63;18.90;;;3.40;99.90;;;;;;5052351;28;20276;-38
2023/01/30 01:42:16;;;;;;;41.22;19.20;;;3.50;99.90;;;;;;5051911;28;20051;-38
2023/01/30 01:45:00;;;;;;;36.92;18.52;;;3.50;99.90;;;;;;5051214;28;20435;-38
2023/01/30 01:47:25;;;;;;;39.25;20.95;;;3.40;99.90;;;;;;5061288;28;20017;-38
2023/01/30 01:49:54;;;;;;;39.58;18.58;;;3.40;99.90;;;;;;5071614;28;20029;-38
2023/01/30 01:52:21;;;;;;;34.95;20.80;;;3.40;99.90;;;;;;5071523;28;20024;-38
2023/01/30 01:54:58;;;;;;;36.05;18.95;;;3.40;99.90;;;;;;5070918;28;20116;-39
2023/01/30 01:57:37;;;;;;;40.92;20.05;;;3.40;99.90;;;;;;5071227;28;20490;-39
2023/01/30 02:00:12;;;;;;;36.10;19.38;;;3.40;99.90;;;;;;5071385;28;20052;-38
2023/01/30 02:02:40;;;;;;;45.35;21.75;;;3.40;99.90;;;;;;5057545;28;20046;-38
2023/01/30 02:05:06;;;;;;;43.05;21.75;;;3.40;99.90;;;;;;5050675;28;20049;-39
2023/01/30 02:07:40;;;;;;;37.53;19.30;;;3.40;99.90;;;;;;5051303;28;20453;-39
2023/01/30 02:10:09;;;;;;;39.03;20.48;;;3.50;99.90;;;;;;5050048;28;20036;-38
2023/01/30 02:12:35;;;;;;;37.78;19.73;;;3.50;99.90;;;;;;5051268;28;20112;-38
2023/01/30 02:15:02;;;;;;;39.45;19.73;;;3.60;99.90;;;;;;5050741;28;20036;-38
2023/01/30 02:17:28;;;;;;;35.90;19.38;;;3.50;99.90;;;;;;5061284;28;20605;-38
2023/01/30 02:20:22;;;;;;;41.20;19.75;;;3.50;99.90;;;;;;5071016;28;20120;-38
2023/01/30 02:23:17;;;;;;;40.25;20.27;;;3.60;99.90;;;;;;5020942;28;20034;-38
2023/01/30 02:25:43;;;;;;;36.63;18.67;;;3.60;99.90;;;;;;5013562;28;20109;-38
2023/01/30 02:28:30;;;;;;;37.25;18.88;;;3.60;99.90;;;;;;5029996;28;20025;-37
2023/01/30 02:31:05;;;;;;;35.90;19.63;;;3.60;99.90;;;;;;5031116;28;20490;-38
2023/01/30 02:33:51;;;;;;;44.65;20.67;;;3.50;99.90;;;;;;5049695;28;20021;-38
2023/01/30 02:36:59;;;;;;;43.17;21.30;;;3.50;99.90;;;;;;5050503;28;20060;-38
2023/01/30 02:39:46;;;;;;;40.58;19.02;;;3.50;99.90;;;;;;5049420;28;20028;-38
2023/01/30 02:42:46;;;;;;;42.85;21.13;;;3.50;99.90;;;;;;5050952;28;20025;-38
2023/01/30 02:45:25;;;;;;;39.00;20.35;;;3.60;99.90;;;;;;5049995;28;20020;-39
2023/01/30 02:47:59;;;;;;;43.28;20.48;;;3.60;99.90;;;;;;5052343;28;20048;-39
2023/01/30 02:50:32;;;;;;;42.25;21.65;;;3.60;99.90;;;;;;5050441;28;20405;-38
2023/01/30 02:52:58;;;;;;;40.38;21.40;;;3.60;99.90;;;;;;5050968;28;20344;-38
2023/01/30 02:55:26;;;;;;;36.75;20.23;;;3.70;99.90;;;;;;5049478;28;20032;-38
2023/01/30 02:57:52;;;;;;;39.45;20.90;;;3.70;99.90;;;;;;5050062;28;20112;-38
2023/01/30 03:00:39;;;;;;;42.00;19.38;;;3.70;99.90;;;;;;5050367;28;20442;-38
2023/01/30 03:03:29;;;;;;;37.70;19.95;;;3.70;99.90;;;;;;5051479;28;20025;-38
2023/01/30 03:06:11;;;;;;;35.03;19.13;;;3.80;99.90;;;;;;5039526;28;20021;-38
2023/01/30 03:09:24;;;;;;;37.30;19.90;;;3.90;99.90;;;;;;5050236;28;20466;-39
2023/01/30 03:12:12;;;;;;;45.53;20.88;;;3.90;99.90;;;;;;5049808;28;20474;-38
2023/01/30 03:14:59;;;;;;;32.35;18.70;;;3.90;99.90;;;;;;5049507;28;20332;-39
2023/01/30 03:17:27;;;;;;;35.40;17.27;;;3.90;99.90;;;;;;5059916;28;20044;-39
2023/01/30 03:19:54;;;;;;;35.67;19.65;;;4.00;99.90;;;;;;5069626;28;20121;-38
2023/01/30 03:22:20;;;;;;;35.83;18.17;;;4.00;99.90;;;;;;5069988;28;20377;-38
2023/01/30 03:24:48;;;;;;;34.88;18.55;;;4.00;99.90;;;;;;5065332;28;20451;-38
2023/01/30 03:27:13;;;;;;;35.25;19.33;;;4.10;99.90;;;;;;5069986;28;20458;-38
2023/01/30 03:29:39;;;;;;;35.63;17.65;;;4.20;99.90;;;;;;5069359;28;20024;-39
2023/01/30 03:32:05;;;;;;;33.70;18.20;;;4.20;99.90;;;;;;5060599;28;20108;-38
2023/01/30 03:34:31;;;;;;;40.53;19.35;;;4.30;99.90;;;;;;5048894;28;20316;-38
2023/01/30 03:36:57;;;;;;;38.88;20.20;;;4.20;99.90;;;;;;5049540;28;20025;-39
2023/01/30 03:39:23;;;;;;;35.28;19.88;;;4.20;99.90;;;;;;5049722;28;20021;-39
2023/01/30 03:41:50;;;;;;;35.25;19.33;;;4.20;99.90;;;;;;5047818;28;20056;-39
2023/01/30 03:44:15;;;;;;;33.22;18.17;;;4.20;99.90;;;;;;5049396;28;20021;-39
2023/01/30 03:46:41;;;;;;;36.50;18.50;;;4.20;99.90;;;;;;5056845;28;20040;-38
2023/01/30 03:49:06;;;;;;;36.50;19.13;;;4.30;99.90;;;;;;5064853;28;20414;-38
2023/01/30 03:51:32;;;;;;;35.33;18.73;;;4.40;99.90;;;;;;5068748;28;20040;-38
2023/01/30 03:53:57;;;;;;;33.20;18.23;;;4.40;99.90;;;;;;5069389;28;20028;-38
2023/01/30 03:56:23;;;;;;;37.90;19.98;;;4.40;99.90;;;;;;5068419;28;20441;-38
2023/01/30 03:58:48;;;;;;;35.88;19.13;;;4.50;99.90;;;;;;5069490;28;20274;-38
2023/01/30 04:01:14;;;;;;;36.60;19.42;;;4.40;99.90;;;;;;5067208;28;20067;-38
2023/01/30 04:03:39;;;;;;;41.08;20.80;;;4.40;99.90;;;;;;5048969;28;20017;-38
2023/01/30 04:06:05;;;;;;;35.72;21.02;;;4.50;99.90;;;;;;5048317;28;20028;-38
2023/01/30 04:08:30;;;;;;;41.05;21.42;;;4.40;99.90;;;;;;5049041;28;20025;-43
2023/01/30 04:10:56;;;;;;;38.45;20.38;;;4.40;99.90;;;;;;5049062;28;20124;-38
2023/01/30 04:13:22;;;;;;;35.20;18.90;;;4.40;99.90;;;;;;5047708;28;20378;-38
2023/01/30 04:15:47;;;;;;;39.28;21.92;;;4.30;99.90;;;;;;5053077;28;20089;-38
2023/01/30 04:18:13;;;;;;;40.20;22.52;;;4.30;99.90;;;;;;5060727;28;20040;-39
2023/01/30 04:20:38;;;;;;;39.58;22.15;;;4.40;99.90;;;;;;5068550;28;20025;-39
2023/01/30 04:23:04;;;;;;;41.75;21.30;;;4.30;99.90;;;;;;5044208;28;20083;-38
2023/01/30 04:25:29;;;;;;;39.13;21.02;;;4.30;99.90;;;;;;5039105;28;20028;-38
2023/01/30 04:27:55;;;;;;;41.80;20.50;;;4.30;99.90;;;;;;5036537;28;20386;-38
2023/01/30 04:30:21;;;;;;;40.53;21.23;;;4.30;99.90;;;;;;5045930;28;20418;-38
2023/01/30 04:32:46;;;;;;;44.85;21.63;;;4.30;99.90;;;;;;5049860;28;20427;-38
2023/01/30 04:35:13;;;;;;;44.17;21.95;;;4.40;99.90;;;;;;5048091;28;20029;-41
2023/01/30 04:37:38;;;;;;;40.25;20.48;;;4.40;99.90;;;;;;5047658;28;20051;-38
2023/01/30 04:40:05;;;;;;;44.67;22.75;;;4.40;99.90;;;;;;5047949;28;20497;-38
2023/01/30 04:42:30;;;;;;;43.88;22.30;;;4.30;99.90;;;;;;5048654;28;20436;-39
2023/01/30 04:44:57;;;;;;;47.88;23.40;;;4.30;99.90;;;;;;5047975;28;20017;-38
2023/01/30 04:47:22;;;;;;;45.10;23.67;;;4.30;99.90;;;;;;5055854;28;20032;-38
2023/01/30 04:49:48;;;;;;;43.25;22.45;;;4.30;99.90;;;;;;5068272;28;20025;-38
2023/01/30 04:52:13;;;;;;;46.55;22.17;;;4.40;99.90;;;;;;5067190;28;20031;-38
2023/01/30 04:54:39;;;;;;;42.88;21.08;;;4.40;99.90;;;;;;5068017;28;20078;-38
2023/01/30 04:57:04;;;;;;;44.95;24.10;;;4.40;99.90;;;;;;5066972;28;20367;-39
2023/01/30 04:59:31;;;;;;;44.65;23.55;;;4.30;99.90;;;;;;5068434;28;20028;-38
2023/01/30 05:01:56;;;;;;;36.45;19.52;;;4.40;99.90;;;;;;5059247;28;20025;-39
2023/01/30 05:04:22;;;;;;;40.03;21.35;;;4.40;99.90;;;;;;5046867;28;20375;-39
2023/01/30 05:06:47;;;;;;;47.22;21.58;;;4.40;99.90;;;;;;5047900;28;20070;-38
2023/01/30 05:09:13;;;;;;;38.47;20.73;;;4.40;99.90;;;;;;5048379;28;20021;-38
2023/01/30 05:11:38;;;;;;;41.83;21.38;;;4.40;99.90;;;;;;5047967;28;20029;-38
2023/01/30 05:14:04;;;;;;;37.22;19.63;;;4.40;99.90;;;;;;5048371;28;20033;-38
2023/01/30 05:16:30;;;;;;;41.10;21.92;;;4.30;99.90;;;;;;5055925;28;20035;-38
2023/01/30 05:18:55;;;;;;;45.38;22.67;;;4.30;99.90;;;;;;5061163;28;20055;-38
2023/01/30 05:21:25;;;;;;;44.03;21.88;;;4.40;99.90;;;;;;5043455;28;20089;-38
2023/01/30 05:23:52;;;;;;;47.17;21.15;;;4.40;99.90;;;;;;5030261;28;20021;-38
2023/01/30 05:26:18;;;;;;;47.17;21.88;;;4.40;99.90;;;;;;5028940;28;20429;-40
2023/01/30 05:28:43;;;;;;;46.28;23.23;;;4.40;99.90;;;;;;5043751;28;20083;-38
2023/01/30 05:31:11;;;;;;;44.10;20.95;;;4.40;99.90;;;;;;5049351;28;20033;-38
2023/01/30 05:33:38;;;;;;;41.72;20.48;;;4.40;99.90;;;;;;5048376;28;20329;-38
2023/01/30 05:36:04;;;;;;;46.67;19.88;;;4.40;99.90;;;;;;5046315;28;20047;-40
2023/01/30 05:38:30;;;;;;;43.33;21.17;;;4.40;99.90;;;;;;5048244;28;20416;-37
2023/01/30 05:41:04;;;;;;;43.25;20.63;;;4.50;99.90;;;;;;5047936;28;20032;-38
2023/01/30 05:43:30;;;;;;;36.80;20.05;;;4.50;99.90;;;;;;5048004;28;20048;-46
2023/01/30 05:45:58;;;;;;;36.67;19.50;;;4.50;99.90;;;;;;5047576;28;20490;-41
2023/01/30 05:48:24;;;;;;;39.75;20.15;;;4.50;99.90;;;;;;5048179;28;20622;-40
2023/01/30 05:50:50;;;;;;;38.78;19.45;;;4.50;99.90;;;;;;5049925;28;20493;-40
2023/01/30 05:53:17;;;;;;;39.30;18.83;;;4.50;99.90;;;;;;5050577;28;20021;-40
2023/01/30 05:55:43;;;;;;;39.75;19.27;;;4.50;99.90;;;;;;5051052;28;20036;-38
2023/01/30 05:58:09;;;;;;;33.90;18.00;;;4.50;99.90;;;;;;5051548;28;20025;-38
2023/01/30 06:00:35;;;;;;;41.20;19.48;;;4.60;99.90;;;;;;5051297;28;20041;-37
2023/01/30 06:03:00;;;;;;;42.70;20.05;;;4.50;99.90;;;;;;5048853;28;20115;-38
2023/01/30 06:05:26;;;;;;;37.35;18.88;;;4.50;99.90;;;;;;5050524;28;20428;-38
2023/01/30 06:07:51;;;;;;;41.55;20.50;;;4.50;99.90;;;;;;5051331;28;20021;-38
2023/01/30 06:10:17;;;;;;;37.97;19.48;;;4.60;99.90;;;;;;5051481;28;20029;-38
2023/01/30 06:12:43;;;;;;;41.13;19.70;;;4.60;99.90;;;;;;5051006;28;20028;-38
2023/01/30 06:15:09;;;;;;;36.45;18.48;;;4.60;99.90;;;;;;5051227;28;20021;-38
2023/01/30 06:17:34;;;;;;;33.47;18.70;;;4.60;99.90;;;;;;5056999;28;20521;-38
2023/01/30 06:20:00;;;;;;;38.78;19.38;;;4.70;99.90;;;;;;5046976;28;20025;-37
2023/01/30 06:22:25;;;;;;;40.05;19.13;;;4.70;99.90;;;;;;5050646;28;20536;-37
2023/01/30 06:24:51;;;;;;;38.17;17.52;;;4.70;99.90;;;;;;5050287;28;20021;-37
2023/01/30 06:27:18;;;;;;;33.80;18.25;;;4.70;99.90;;;;;;5050675;28;20396;-37
2023/01/30 06:29:43;;;;;;;39.35;18.52;;;4.70;99.90;;;;;;5050644;28;20017;-37
2023/01/30 06:32:09;;;;;;;29.95;16.55;;;4.80;99.90;;;;;;5052944;28;20544;-37
2023/01/30 06:34:34;;;;;;;33.65;17.33;;;4.80;99.90;;;;;;5054278;28;20348;-39
2023/01/30 06:37:00;;;;;;;30.15;15.05;;;4.90;99.90;;;;;;5055600;28;20069;-41
2023/01/30 06:39:26;;;;;;;27.88;16.85;;;4.80;99.90;;;;;;5050236;28;20025;-39
2023/01/30 06:41:51;;;;;;;29.20;15.57;;;4.90;99.90;;;;;;5049278;28;20029;-39
2023/01/30 06:44:17;;;;;;;27.73;14.98;;;4.90;99.90;;;;;;5048815;28;20365;-39
2023/01/30 06:46:42;;;;;;;26.92;15.35;;;4.90;99.90;;;;;;5048388;28;20520;-38
2023/01/30 06:49:08;;;;;;;26.30;15.15;;;5.00;99.90;;;;;;5047090;28;20068;-39
2023/01/30 06:51:33;;;;;;;25.90;12.43;;;5.00;99.90;;;;;;5048770;28;20123;-38
2023/01/30 06:53:59;;;;;;;24.83;13.07;;;5.00;99.90;;;;;;5044889;28;20115;-39
2023/01/30 06:56:24;;;;;;;31.63;13.30;;;5.00;99.90;;;;;;5039986;28;20031;-38
2023/01/30 06:58:50;;;;;;;24.08;12.85;;;5.00;99.90;;;;;;5032479;28;20037;-38
2023/01/30 07:01:15;;;;;;;27.83;11.88;;;5.00;99.90;;;;;;5027288;28;20076;-39
2023/01/30 07:03:41;;;;;;;21.55;11.52;;;5.00;99.90;;;;;;5030170;28;20026;-39
2023/01/30 07:06:06;;;;;;;23.58;12.27;;;5.10;99.90;;;;;;5030213;28;20100;-38
2023/01/30 07:08:32;;;;;;;23.58;11.95;;;5.10;99.90;;;;;;5032831;28;20022;-38
2023/01/30 07:10:57;;;;;;;25.40;11.45;;;5.10;99.90;;;;;;5043924;28;20406;-38
2023/01/30 07:13:23;;;;;;;26.15;11.02;;;5.10;99.90;;;;;;5050039;28;20025;-38
2023/01/30 07:15:49;;;;;;;21.42;10.85;;;5.10;99.90;;;;;;5050165;28;20025;-38
2023/01/30 07:18:14;;;;;;;24.63;10.63;;;5.10;99.90;;;;;;5049980;28;20029;-38
2023/01/30 07:20:41;;;;;;;24.17;10.93;;;5.10;99.90;;;;;;5051233;28;20032;-39
2023/01/30 07:23:07;;;;;;;17.35;5.18;;;5.10;99.90;;;;;;5051189;28;20013;-39
2023/01/30 07:25:32;;;;;;;13.90;3.95;;;4.80;99.90;;;;;;5049329;28;20021;-39
2023/01/30 07:28:00;;;;;;;22.77;4.55;;;4.40;99.90;;;;;;5051071;28;20397;-39
2023/01/30 07:30:27;;;;;;;21.85;4.53;;;4.30;99.90;;;;;;5051274;28;20029;-38
2023/01/30 07:32:56;;;;;;;17.23;3.92;;;4.10;99.90;;;;;;5051033;28;20029;-39
2023/01/30 07:35:23;;;;;;;30.77;3.90;;;3.80;99.90;;;;;;5050008;28;20021;-40
2023/01/30 07:37:49;;;;;;;18.02;4.15;;;3.70;99.90;;;;;;5051059;28;20025;-39
2023/01/30 07:40:15;;;;;;;19.42;5.18;;;3.60;99.90;;;;;;5049119;28;20657;-39
2023/01/30 07:42:41;;;;;;;15.40;5.40;;;3.60;99.90;;;;;;5050825;28;20049;-39
2023/01/30 07:45:08;;;;;;;15.55;6.00;;;3.50;99.90;;;;;;5050691;28;20432;-39
2023/01/30 07:47:33;;;;;;;22.35;7.03;;;3.60;99.90;;;;;;5049753;28;20074;-39
2023/01/30 07:49:59;;;;;;;33.72;8.40;;;3.60;99.90;;;;;;5050378;28;20037;-39
2023/01/30 07:52:24;;;;;;;34.53;9.25;;;3.70;99.90;;;;;;5049647;28;20029;-40
2023/01/30 07:54:50;;;;;;;40.67;10.73;;;3.80;99.90;;;;;;5050094;28;20036;-39
2023/01/30 07:57:15;;;;;;;37.85;9.93;;;3.90;99.90;;;;;;5049166;28;20032;-39
2023/01/30 07:59:41;;;;;;;39.58;9.48;;;4.10;99.90;;;;;;5049307;28;20032;-39
2023/01/30 08:02:09;;;;;;;41.40;9.95;;;4.20;99.90;;;;;;5050598;28;20025;-39
2023/01/30 08:04:35;;;;;;;40.65;9.57;;;4.40;99.90;;;;;;5048164;28;20037;-40
2023/01/30 08:07:00;;;;;;;44.53;10.77;;;4.40;99.90;;;;;;5050470;28;20021;-39
2023/01/30 08:09:26;;;;;;;47.15;8.40;;;4.50;99.90;;;;;;5050446;28;20462;-39
2023/01/30 08:11:51;;;;;;;54.38;9.65;;;4.60;99.90;;;;;;5049777;28;20505;-40
2023/01/30 08:14:17;;;;;;;39.10;8.70;;;4.60;99.90;;;;;;5050210;28;20033;-39
2023/01/30 08:16:42;;;;;;;36.20;7.93;;;4.70;99.90;;;;;;5049698;28;20095;-39
2023/01/30 08:19:08;;;;;;;43.55;7.82;;;4.70;99.90;;;;;;5050403;28;20530;-39
2023/01/30 08:21:33;;;;;;;31.20;6.70;;;4.70;99.90;;;;;;5049996;28;20025;-39
2023/01/30 08:23:59;;;;;;;37.95;8.57;;;4.80;99.90;;;;;;5050042;28;20040;-39
2023/01/30 08:26:25;;;;;;;39.22;8.25;;;4.80;99.90;;;;;;5049655;28;20024;-39
2023/01/30 08:28:50;;;;;;;31.65;6.68;;;4.80;99.90;;;;;;5049913;28;20528;-39
2023/01/30 08:31:17;;;;;;;35.53;7.80;;;4.80;99.90;;;;;;5049803;28;20037;-39
2023/01/30 08:33:43;;;;;;;32.22;7.32;;;4.90;99.90;;;;;;5049693;28;20546;-39
2023/01/30 08:36:08;;;;;;;31.58;7.63;;;4.80;99.90;;;;;;5049563;28;20450;-39
2023/01/30 08:38:34;;;;;;;31.60;7.13;;;4.80;99.90;;;;;;5049972;28;20052;-39
2023/01/30 08:40:59;;;;;;;36.17;6.20;;;4.70;99.90;;;;;;5049893;28;20027;-39
2023/01/30 08:43:25;;;;;;;49.83;6.68;;;4.70;99.90;;;;;;5049439;28;20025;-39
2023/01/30 08:45:55;;;;;;;26.27;5.50;;;4.80;99.90;;;;;;5048247;28;20382;-41
2023/01/30 08:48:21;;;;;;;53.33;6.20;;;4.90;99.90;;;;;;5047970;28;20053;-39
2023/01/30 08:50:46;;;;;;;36.40;6.15;;;4.80;99.90;;;;;;5049917;28;20079;-39
2023/01/30 08:53:12;;;;;;;38.88;5.38;;;4.80;99.90;;;;;;5049958;28;20088;-39
2023/01/30 08:55:38;;;;;;;54.92;6.68;;;4.80;99.90;;;;;;5049444;28;20021;-40
2023/01/30 08:58:04;;;;;;;47.30;7.30;;;4.80;99.90;;;;;;5050176;28;20066;-39
2023/01/30 09:00:29;;;;;;;55.30;7.88;;;4.80;99.90;;;;;;5049810;28;20021;-39
2023/01/30 09:02:56;;;;;;;37.92;5.80;;;4.70;99.90;;;;;;5050039;28;20018;-40
2023/01/30 09:05:22;;;;;;;30.58;6.32;;;4.70;99.90;;;;;;5049555;28;20024;-41
2023/01/30 09:07:49;;;;;;;51.88;5.95;;;4.70;99.90;;;;;;5048565;28;20033;-40
2023/01/30 09:10:15;;;;;;;47.55;6.30;;;4.80;99.90;;;;;;5049675;28;20029;-39
2023/01/30 09:12:40;;;;;;;29.83;6.07;;;4.70;99.90;;;;;;5049834;28;20021;-39
2023/01/30 09:15:06;;;;;;;36.83;5.55;;;4.80;99.90;;;;;;5049480;28;20031;-39
2023/01/30 09:17:32;;;;;;;45.90;8.93;;;4.80;99.90;;;;;;5049866;28;20023;-48
2023/01/30 09:19:58;;;;;;;40.33;6.18;;;4.80;99.90;;;;;;5049798;28;20565;-51
2023/01/30 09:22:23;;;;;;;37.35;7.00;;;4.90;99.90;;;;;;5049674;28;20021;-48
2023/01/30 09:24:49;;;;;;;33.25;6.85;;;4.80;99.90;;;;;;5052505;28;20029;-48
2023/01/30 09:27:14;;;;;;;38.50;6.68;;;4.90;99.90;;;;;;5053406;28;20481;-48
2023/01/30 09:29:40;;;;;;;35.25;5.30;;;5.00;99.90;;;;;;5053125;28;20021;-49
2023/01/30 09:32:05;;;;;;;43.45;7.63;;;5.10;99.90;;;;;;5052511;28;20063;-40
2023/01/30 09:34:31;;;;;;;31.08;5.82;;;5.20;99.90;;;;;;5053347;28;20083;-40
2023/01/30 09:36:59;;;;;;;27.20;5.32;;;5.30;99.90;;;;;;5052895;28;20021;-39
2023/01/30 09:39:25;;;;;;;27.13;6.25;;;5.60;99.90;;;;;;5053162;28;20033;-39
2023/01/30 09:42:29;;;;;;;32.95;5.95;;;5.60;99.90;;;;;;5052930;28;20025;-39
2023/01/30 09:45:38;;;;;;;38.92;5.85;;;5.50;99.90;;;;;;5052367;28;20036;-39
2023/01/30 09:48:10;;;;;;;40.72;5.65;;;5.40;99.90;;;;;;4971113;28;20029;-39
2023/01/30 09:50:48;;;;;;;34.72;5.68;;;5.40;99.90;;;;;;4954984;28;20035;-39
2023/01/30 09:53:32;;;;;;;33.78;6.15;;;5.30;99.90;;;;;;5015575;28;20052;-39
2023/01/30 09:55:59;;;;;;;32.88;5.20;;;5.30;99.90;;;;;;5052337;28;20506;-39
2023/01/30 09:58:31;;;;;;;22.88;4.93;;;5.20;99.90;;;;;;5052704;28;20059;-38
2023/01/30 10:01:05;;;;;;;28.80;4.90;;;5.20;99.90;;;;;;5052510;28;20029;-38
2023/01/30 10:03:40;;;;;;;40.97;6.53;;;5.10;99.90;;;;;;5062363;28;20024;-47
2023/01/30 10:06:13;;;;;;;26.08;5.68;;;5.30;99.90;;;;;;5072051;28;20021;-48
2023/01/30 10:09:01;;;;;;;29.65;6.15;;;5.30;99.90;;;;;;5072509;28;20512;-47
2023/01/30 10:12:08;;;;;;;26.27;5.18;;;5.30;99.90;;;;;;5054647;28;20036;-48
2023/01/30 10:15:31;;;;;;;24.83;6.57;;;5.50;99.90;;;;;;5014433;28;20040;-47
2023/01/30 10:18:25;;;;;;;23.40;5.72;;;5.40;99.90;;;;;;4955029;28;20038;-48
2023/01/30 10:21:19;;;;;;;41.75;7.35;;;5.40;99.90;;;;;;4970750;28;20018;-48
2023/01/30 10:24:15;;;;;;;31.08;5.40;;;5.40;99.90;;;;;;5048917;28;20029;-51
2023/01/30 10:26:41;;;;;;;26.73;5.85;;;5.30;99.90;;;;;;5050439;28;20084;-48
2023/01/30 10:29:23;;;;;;;19.88;6.05;;;5.50;99.90;;;;;;5052515;28;20592;-48
2023/01/30 10:32:14;;;;;;;29.45;5.38;;;5.60;99.90;;;;;;5052271;28;20021;-48
2023/01/30 10:34:44;;;;;;;30.88;5.35;;;5.60;99.90;;;;;;5052189;28;20111;-44
2023/01/30 10:37:29;;;;;;;33.15;6.20;;;5.60;99.90;;;;;;5051760;28;20634;-39
2023/01/30 10:40:03;;;;;;;28.33;5.32;;;5.70;99.90;;;;;;5052188;28;20037;-39
2023/01/30 10:42:58;;;;;;;30.80;5.07;;;7.00;99.90;;;;;;5051996;28;20103;-39
2023/01/30 10:45:50;;;;;;;23.10;4.90;;;8.30;99.90;;;;;;5051890;28;20735;-50
2023/01/30 10:48:39;;;;;;;22.60;5.15;;;9.40;99.90;;;;;;5051244;28;20037;-49
2023/01/30 10:51:21;;;;;;;21.10;4.35;;;10.80;99.90;;;;;;5051888;28;20036;-49
2023/01/30 10:54:01;;;;;;;14.55;4.10;;;11.20;99.90;;;;;;5051911;28;20037;-50
2023/01/30 10:56:53;;;;;;;19.13;4.43;;;10.80;99.90;;;;;;5051437;28;20025;-49
2023/01/30 10:59:39;;;;;;;22.27;4.22;;;10.20;99.90;;;;;;5050281;28;20489;-47
2023/01/30 11:02:31;;;;;;;19.35;4.07;;;9.50;99.90;;;;;;5051664;28;20095;-48
2023/01/30 11:04:59;;;;;;;21.52;3.70;;;8.90;99.90;;;;;;5049577;28;20144;-49
2023/01/30 11:07:29;;;;;;;22.95;4.75;;;8.30;99.90;;;;;;5050326;28;20486;-47
2023/01/30 11:09:57;;;;;;;29.35;4.78;;;7.90;99.90;;;;;;5047699;28;20036;-48
2023/01/30 11:12:22;;;;;;;22.33;4.78;;;7.70;99.90;;;;;;5049813;28;20583;-48
2023/01/30 11:14:59;;;;;;;22.90;3.75;;;7.80;99.90;;;;;;5049352;28;20105;-38
2023/01/30 11:17:34;;;;;;;19.27;3.35;;;7.60;99.90;;;;;;5039026;28;20021;-39
2023/01/30 11:20:17;;;;;;;5.65;2.30;;;7.40;99.90;;;;;;5045703;28;20028;-38
2023/01/30 11:23:04;;;;;;;11.43;2.35;;;6.90;99.90;;;;;;5050084;28;20574;-39
2023/01/30 11:25:30;;;;;;;15.10;3.30;;;6.50;99.90;;;;;;5046489;28;20060;-40
2023/01/30 11:28:01;;;;;;;16.95;3.10;;;6.30;99.90;;;;;;5039030;28;20021;-40
2023/01/30 11:30:32;;;;;;;25.67;4.95;;;6.20;99.90;;;;;;5037291;28;20053;-40
2023/01/30 11:33:12;;;;;;;18.23;4.35;;;6.20;99.90;;;;;;5037416;28;20091;-37
2023/01/30 11:35:56;;;;;;;14.18;3.92;;;6.00;99.90;;;;;;5035871;28;20025;-37
2023/01/30 11:38:24;;;;;;;22.23;4.00;;;6.00;99.90;;;;;;5036029;28;20026;-40
2023/01/30 11:41:02;;;;;;;20.00;4.45;;;5.80;99.90;;;;;;5038673;28;20612;-40
2023/01/30 11:43:27;;;;;;;24.77;3.90;;;5.60;99.90;;;;;;5038620;28;20514;-40
2023/01/30 11:45:54;;;;;;;25.77;3.75;;;5.50;99.90;;;;;;5032152;28;20083;-40
2023/01/30 11:48:26;;;;;;;23.02;4.65;;;5.50;99.90;;;;;;5041416;28;20358;-38
2023/01/30 11:50:56;;;;;;;12.70;3.33;;;6.70;99.90;;;;;;5049870;28;20035;-43
2023/01/30 11:53:45;;;;;;;13.27;3.80;;;7.30;99.90;;;;;;5050666;28;20017;-38
2023/01/30 11:56:19;;;;;;;26.25;4.25;;;7.80;99.90;;;;;;5048316;28;20421;-38
2023/01/30 11:58:57;;;;;;;13.45;3.13;;;7.90;99.90;;;;;;5050497;28;20466;-48
2023/01/30 12:01:32;;;;;;;27.58;4.65;;;7.50;99.90;;;;;;5050632;28;20682;-47
2023/01/30 12:03:59;;;;;;;20.75;3.58;;;7.10;99.90;;;;;;5050830;28;20025;-47
2023/01/30 12:06:34;;;;;;;16.25;3.65;;;6.90;99.90;;;;;;5050109;28;20491;-47
2023/01/30 12:09:00;;;;;;;21.33;4.22;;;6.70;99.90;;;;;;5050854;28;20025;-47
2023/01/30 12:11:28;;;;;;;7.22;2.38;;;6.70;99.90;;;;;;5050776;28;20056;-46
2023/01/30 12:14:03;;;;;;;13.88;3.28;;;7.20;99.90;;;;;;5049189;28;20646;-47
2023/01/30 12:17:04;;;;;;;9.45;2.45;;;7.40;99.90;;;;;;5048947;28;20128;-46
2023/01/30 12:19:53;;;;;;;10.32;2.65;;;7.00;99.90;;;;;;5050675;28;20482;-46
2023/01/30 12:22:36;;;;;;;13.93;3.00;;;6.80;99.90;;;;;;5050767;28;20075;-46
2023/01/30 12:25:38;;;;;;;13.77;2.60;;;6.90;99.90;;;;;;5049872;28;20028;-47
2023/01/30 12:28:19;;;;;;;21.65;3.33;;;6.70;99.90;;;;;;5037210;28;20120;-47
2023/01/30 12:31:10;;;;;;;16.48;2.90;;;6.50;99.90;;;;;;5050219;28;20029;-46
2023/01/30 12:33:36;;;;;;;12.32;3.30;;;6.30;99.90;;;;;;5050423;28;20032;-48
2023/01/30 12:36:11;;;;;;;16.90;4.18;;;6.00;99.90;;;;;;5049670;28;20025;-48
2023/01/30 12:38:42;;;;;;;20.52;3.08;;;5.80;99.90;;;;;;5049875;28;20024;-48
2023/01/30 12:41:30;;;;;;;18.15;2.88;;;5.70;99.90;;;;;;5048425;28;20601;-48
2023/01/30 12:44:17;;;;;;;17.13;3.10;;;5.50;99.90;;;;;;5050199;28;20013;-47
2023/01/30 12:46:46;;;;;;;17.33;4.20;;;5.30;99.90;;;;;;5049499;28;20063;-48
2023/01/30 12:49:47;;;;;;;13.90;2.80;;;5.10;99.90;;;;;;5049532;28;20022;-47
2023/01/30 12:52:32;;;;;;;12.45;2.70;;;5.00;99.90;;;;;;5049371;28;20037;-48
2023/01/30 12:55:05;;;;;;;18.52;3.38;;;4.90;99.90;;;;;;5049670;28;20029;-48
2023/01/30 12:58:10;;;;;;;14.85;2.55;;;4.80;99.90;;;;;;5048331;28;20117;-47
2023/01/30 13:00:59;;;;;;;14.45;2.25;;;4.60;99.90;;;;;;5042891;28;20394;-48
2023/01/30 13:03:25;;;;;;;15.32;2.75;;;4.80;99.90;;;;;;5054465;28;20028;-47
2023/01/30 13:06:31;;;;;;;19.83;3.58;;;5.10;99.90;;;;;;5053806;28;20804;-47
2023/01/30 13:09:18;;;;;;;12.50;2.83;;;5.40;99.90;;;;;;5026510;28;20037;-47